createdAt,value
2022-10-02T00:02:11.573Z,9.08
2022-10-02T00:05:19.264Z,9.03
2022-10-02T00:08:24.345Z,9.11
2022-10-02T00:11:37.224Z,9.07
2022-10-02T00:14:39.054Z,9.00
2022-10-02T00:17:41.153Z,9.10
2022-10-02T00:21:02.928Z,9.13
2022-10-02T00:24:05.697Z,9.08
2022-10-02T00:27:15.392Z,8.99
2022-10-02T00:30:17.832Z,9.08
2022-10-02T00:33:28.550Z,9.01
2022-10-02T00:36:51.713Z,8.98
2022-10-02T00:40:02.466Z,8.93
2022-10-02T00:43:18.342Z,8.87
2022-10-02T00:46:32.101Z,8.88
2022-10-02T00:49:33.585Z,8.88
2022-10-02T00:52:45.573Z,8.90
2022-10-02T00:56:09.345Z,9.00
2022-10-02T00:59:10.890Z,8.91
2022-10-02T01:02:35.244Z,8.96
2022-10-02T01:05:36.771Z,8.92
2022-10-02T01:08:38.576Z,8.94
2022-10-02T01:11:40.144Z,8.91
2022-10-02T01:14:41.769Z,8.88
2022-10-02T01:17:43.269Z,8.81
2022-10-02T01:20:45.813Z,8.74
2022-10-02T01:23:50.564Z,8.63
2022-10-02T01:26:52.121Z,8.64
2022-10-02T01:29:57.433Z,8.41
2022-10-02T01:33:00.264Z,8.32
2022-10-02T01:36:01.777Z,8.19
2022-10-02T01:39:03.494Z,8.16
2022-10-02T01:42:04.994Z,8.27
2022-10-02T01:45:07.132Z,8.37
2022-10-02T01:48:13.325Z,8.39
2022-10-02T01:51:14.836Z,8.38
2022-10-02T01:54:19.130Z,8.42
2022-10-02T01:57:30.769Z,8.42
2022-10-02T02:00:40.591Z,8.41
2022-10-02T02:03:45.148Z,8.39
2022-10-02T02:06:49.494Z,8.37
2022-10-02T02:10:14.097Z,8.34
2022-10-02T02:13:27.942Z,8.21
2022-10-02T02:16:34.247Z,7.96
2022-10-02T02:19:56.389Z,8.00
2022-10-02T02:22:58.630Z,8.09
2022-10-02T02:26:02.341Z,7.97
2022-10-02T02:29:06.031Z,8.06
2022-10-02T02:32:08.294Z,7.92
2022-10-02T02:35:10.693Z,7.95
2022-10-02T02:38:18.080Z,8.08
2022-10-02T02:41:21.558Z,8.17
2022-10-02T02:44:24.670Z,8.28
2022-10-02T02:47:28.144Z,8.49
2022-10-02T02:50:34.037Z,8.51
2022-10-02T02:53:37.201Z,8.49
2022-10-02T02:56:38.903Z,8.35
2022-10-02T02:59:40.655Z,8.39
2022-10-02T03:02:42.199Z,8.38
2022-10-02T03:05:45.978Z,8.43
2022-10-02T03:08:48.359Z,8.37
2022-10-02T03:11:53.349Z,8.30
2022-10-02T03:14:54.873Z,8.27
2022-10-02T03:18:09.967Z,8.32
2022-10-02T03:21:33.351Z,8.35
2022-10-02T03:24:36.334Z,8.31
2022-10-02T03:27:57.257Z,8.29
2022-10-02T03:30:58.856Z,8.26
2022-10-02T03:34:00.783Z,8.29
2022-10-02T03:37:02.299Z,8.29
2022-10-02T03:40:05.801Z,8.29
2022-10-02T03:43:07.341Z,8.20
2022-10-02T03:46:09.013Z,8.18
2022-10-02T03:49:10.534Z,8.16
2022-10-02T03:52:15.918Z,8.14
2022-10-02T03:55:28.404Z,8.14
2022-10-02T03:58:29.942Z,8.13
2022-10-02T04:01:36.030Z,8.18
2022-10-02T04:04:40.826Z,8.19
2022-10-02T04:07:42.579Z,8.25
2022-10-02T04:10:46.340Z,8.38
2022-10-02T04:13:48.945Z,8.42
2022-10-02T04:16:57.418Z,8.44
2022-10-02T04:20:14.394Z,8.48
2022-10-02T04:23:18.125Z,8.51
2022-10-02T04:26:27.682Z,8.56
2022-10-02T04:29:32.320Z,8.18
2022-10-02T04:32:34.490Z,7.92
2022-10-02T04:35:45.909Z,7.81
2022-10-02T04:38:47.454Z,7.95
2022-10-02T04:42:09.286Z,8.02
2022-10-02T04:45:10.777Z,7.97
2022-10-02T04:48:35.591Z,7.95
2022-10-02T04:51:40.003Z,8.13
2022-10-02T04:54:56.586Z,8.17
2022-10-02T04:58:16.671Z,8.13
2022-10-02T05:01:27.158Z,8.01
2022-10-02T05:04:40.579Z,8.08
2022-10-02T05:07:42.142Z,8.41
2022-10-02T05:10:43.897Z,8.39
2022-10-02T05:13:45.418Z,8.41
2022-10-02T05:17:03.938Z,8.39
2022-10-02T05:20:05.463Z,8.35
2022-10-02T05:23:11.847Z,8.31
2022-10-02T05:26:32.298Z,8.32
2022-10-02T05:29:48.829Z,8.28
2022-10-02T05:33:05.500Z,8.19
2022-10-02T05:36:13.038Z,8.09
2022-10-02T05:39:21.609Z,7.97
2022-10-02T05:42:26.282Z,7.92
2022-10-02T05:45:46.322Z,7.91
2022-10-02T05:48:50.061Z,7.86
2022-10-02T05:51:59.644Z,7.69
2022-10-02T05:55:19.487Z,7.74
2022-10-02T05:58:21.011Z,7.76
2022-10-02T06:01:23.832Z,7.84
2022-10-02T06:04:36.203Z,7.68
2022-10-02T06:07:37.718Z,7.96
2022-10-02T06:10:43.625Z,8.00
2022-10-02T06:14:14.449Z,8.07
2022-10-02T06:17:39.005Z,8.07
2022-10-02T06:20:41.073Z,8.01
2022-10-02T06:23:44.143Z,8.03
2022-10-02T06:27:08.974Z,8.14
2022-10-02T06:30:11.462Z,8.09
2022-10-02T06:33:33.597Z,8.06
2022-10-02T06:36:44.313Z,8.01
2022-10-02T06:40:18.131Z,8.02
2022-10-02T06:43:40.466Z,8.11
2022-10-02T06:46:51.532Z,8.21
2022-10-02T06:50:00.156Z,8.26
2022-10-02T06:53:10.829Z,8.29
2022-10-02T06:56:12.305Z,8.44
2022-10-02T06:59:30.150Z,8.51
2022-10-02T07:02:32.550Z,8.48
2022-10-02T07:05:43.377Z,8.57
2022-10-02T07:08:48.161Z,8.61
2022-10-02T07:12:08.382Z,8.73
2022-10-02T07:15:18.973Z,8.87
2022-10-02T07:18:46.766Z,8.96
2022-10-02T07:21:55.083Z,9.02
2022-10-02T07:25:16.111Z,9.02
2022-10-02T07:28:17.659Z,9.09
2022-10-02T07:31:38.995Z,9.19
2022-10-02T07:34:53.838Z,9.33
2022-10-02T07:38:13.927Z,9.53
2022-10-02T07:41:30.473Z,9.73
2022-10-02T07:44:44.561Z,9.84
2022-10-02T07:47:46.085Z,9.92
2022-10-02T07:50:53.600Z,9.99
2022-10-02T07:53:57.071Z,9.99
2022-10-02T07:56:59.537Z,9.98
2022-10-02T08:00:03.050Z,10.00
2022-10-02T08:03:23.866Z,10.11
2022-10-02T08:06:25.497Z,10.16
2022-10-02T08:09:47.527Z,10.18
2022-10-02T08:12:54.157Z,10.28
2022-10-02T08:15:56.117Z,10.42
2022-10-02T08:19:09.152Z,10.52
2022-10-02T08:22:16.703Z,10.56
2022-10-02T08:25:21.230Z,10.56
2022-10-02T08:28:22.831Z,10.66
2022-10-02T08:31:24.441Z,10.77
2022-10-02T08:34:26.211Z,10.81
2022-10-02T08:37:33.876Z,10.89
2022-10-02T08:40:44.350Z,10.98
2022-10-02T08:44:01.086Z,11.17
2022-10-02T08:47:21.443Z,11.17
2022-10-02T08:50:29.347Z,11.36
2022-10-02T08:53:34.534Z,11.47
2022-10-02T08:56:42.025Z,11.32
2022-10-02T08:59:43.531Z,11.16
2022-10-02T09:02:45.049Z,11.11
2022-10-02T09:06:05.188Z,11.14
2022-10-02T09:09:25.542Z,11.12
2022-10-02T09:12:33.233Z,10.93
2022-10-02T09:15:47.717Z,10.87
2022-10-02T09:19:03.686Z,10.83
2022-10-02T09:22:30.231Z,11.01
2022-10-02T09:25:37.021Z,11.43
2022-10-02T09:28:44.398Z,11.65
2022-10-02T09:31:55.197Z,11.89
2022-10-02T09:34:58.370Z,11.96
2022-10-02T09:38:11.144Z,12.08
2022-10-02T09:41:31.561Z,12.24
2022-10-02T09:44:48.668Z,12.35
2022-10-02T09:48:11.897Z,12.40
2022-10-02T09:51:40.248Z,11.99
2022-10-02T09:54:44.873Z,11.86
2022-10-02T09:57:47.249Z,11.60
2022-10-02T10:01:01.910Z,11.42
2022-10-02T10:04:22.370Z,11.46
2022-10-02T10:07:42.413Z,11.52
2022-10-02T10:10:44.037Z,11.44
2022-10-02T10:14:04.168Z,11.47
2022-10-02T10:17:20.882Z,11.56
2022-10-02T10:20:22.783Z,11.76
2022-10-02T10:23:27.142Z,12.13
2022-10-02T10:26:34.106Z,12.78
2022-10-02T10:29:39.906Z,13.16
2022-10-02T10:32:44.590Z,13.29
2022-10-02T10:35:46.133Z,13.40
2022-10-02T10:38:49.614Z,13.41
2022-10-02T10:42:01.207Z,13.33
2022-10-02T10:45:08.953Z,13.04
2022-10-02T10:48:22.711Z,12.95
2022-10-02T10:51:30.591Z,12.61
2022-10-02T10:54:48.682Z,12.57
2022-10-02T10:57:53.289Z,12.45
2022-10-02T11:01:07.246Z,12.31
2022-10-02T11:04:26.879Z,12.20
2022-10-02T11:07:35.113Z,12.23
2022-10-02T11:10:42.445Z,12.29
2022-10-02T11:13:54.507Z,12.35
2022-10-02T11:17:09.463Z,12.45
2022-10-02T11:20:30.280Z,12.64
2022-10-02T11:23:35.019Z,13.89
2022-10-02T11:26:36.549Z,13.91
2022-10-02T11:29:56.774Z,14.50
2022-10-02T11:33:33.770Z,13.90
2022-10-02T11:36:44.336Z,14.29
2022-10-02T11:39:52.682Z,14.58
2022-10-02T11:43:11.312Z,14.37
2022-10-02T11:46:34.731Z,14.22
2022-10-02T11:49:39.338Z,14.69
2022-10-02T11:52:59.608Z,15.66
2022-10-02T11:56:06.341Z,15.08
2022-10-02T11:59:28.348Z,14.17
2022-10-02T12:02:38.998Z,13.54
2022-10-02T12:05:59.629Z,13.05
2022-10-02T12:09:03.120Z,13.04
2022-10-02T12:12:17.103Z,12.93
2022-10-02T12:15:27.911Z,12.99
2022-10-02T12:18:36.323Z,13.12
2022-10-02T12:22:05.603Z,13.15
2022-10-02T12:25:44.707Z,13.33
2022-10-02T12:28:46.238Z,13.29
2022-10-02T12:31:53.713Z,13.24
2022-10-02T12:35:15.934Z,13.06
2022-10-02T12:38:38.932Z,13.00
2022-10-02T12:41:52.662Z,13.05
2022-10-02T12:44:58.835Z,13.12
2022-10-02T12:48:15.552Z,12.98
2022-10-02T12:51:28.202Z,12.85
2022-10-02T12:54:33.377Z,12.77
2022-10-02T12:57:56.023Z,12.83
2022-10-02T13:01:00.810Z,13.01
2022-10-02T13:04:21.086Z,13.09
2022-10-02T13:07:31.026Z,14.61
2022-10-02T13:10:41.339Z,15.38
2022-10-02T13:13:48.894Z,15.21
2022-10-02T13:16:50.445Z,15.89
2022-10-02T13:20:00.553Z,16.30
2022-10-02T13:23:06.314Z,16.71
2022-10-02T13:26:12.827Z,15.51
2022-10-02T13:29:14.382Z,15.51
2022-10-02T13:32:34.343Z,14.69
2022-10-02T13:35:45.847Z,14.20
2022-10-02T13:38:47.462Z,14.10
2022-10-02T13:41:54.873Z,13.99
2022-10-02T13:45:16.643Z,13.64
2022-10-02T13:48:30.358Z,13.40
2022-10-02T13:51:37.235Z,13.35
2022-10-02T13:54:42.049Z,13.38
2022-10-02T13:57:43.616Z,13.26
2022-10-02T14:00:49.555Z,13.37
2022-10-02T14:03:57.350Z,13.59
2022-10-02T14:07:07.862Z,13.58
2022-10-02T14:10:15.364Z,13.54
2022-10-02T14:13:16.854Z,13.51
2022-10-02T14:16:21.544Z,13.47
2022-10-02T14:19:38.059Z,13.43
2022-10-02T14:22:58.158Z,13.39
2022-10-02T14:25:59.669Z,13.52
2022-10-02T14:29:13.470Z,13.42
2022-10-02T14:32:18.608Z,13.36
2022-10-02T14:35:20.261Z,13.46
2022-10-02T14:38:25.159Z,13.44
2022-10-02T14:41:49.172Z,13.44
2022-10-02T14:44:50.917Z,13.43
2022-10-02T14:47:52.479Z,13.35
2022-10-02T14:50:53.996Z,13.29
2022-10-02T14:54:01.457Z,13.31
2022-10-02T14:57:06.532Z,13.20
2022-10-02T15:00:11.194Z,13.09
2022-10-02T15:03:17.894Z,13.01
2022-10-02T15:06:22.418Z,13.06
2022-10-02T15:09:24.200Z,13.09
2022-10-02T15:12:26.329Z,13.15
2022-10-02T15:15:37.364Z,13.07
2022-10-02T15:18:41.930Z,12.94
2022-10-02T15:21:47.006Z,12.92
2022-10-02T15:24:55.720Z,12.84
2022-10-02T15:28:31.309Z,12.70
2022-10-02T15:31:41.775Z,12.48
2022-10-02T15:34:54.957Z,12.28
2022-10-02T15:38:20.242Z,12.23
2022-10-02T15:41:44.881Z,12.17
2022-10-02T15:44:49.290Z,12.21
2022-10-02T15:48:00.988Z,12.21
2022-10-02T15:51:02.510Z,12.23
2022-10-02T15:54:04.057Z,12.23
2022-10-02T15:57:22.170Z,12.21
2022-10-02T16:00:26.065Z,12.17
2022-10-02T16:03:31.887Z,12.21
2022-10-02T16:06:53.613Z,12.20
2022-10-02T16:09:55.169Z,12.19
2022-10-02T16:12:56.674Z,12.16
2022-10-02T16:15:58.237Z,12.09
2022-10-02T16:19:00.892Z,11.92
2022-10-02T16:22:05.206Z,11.87
2022-10-02T16:25:15.742Z,11.77
2022-10-02T16:28:17.342Z,11.72
2022-10-02T16:31:57.498Z,11.68
2022-10-02T16:35:24.279Z,11.66
2022-10-02T16:38:44.296Z,11.63
2022-10-02T16:42:03.814Z,11.59
2022-10-02T16:45:14.396Z,11.56
2022-10-02T16:48:19.887Z,11.57
2022-10-02T16:51:39.818Z,11.49
2022-10-02T16:54:47.437Z,11.39
2022-10-02T16:57:51.673Z,11.32
2022-10-02T17:00:55.802Z,11.22
2022-10-02T17:04:06.965Z,11.14
2022-10-02T17:07:17.785Z,11.03
2022-10-02T17:10:25.769Z,10.95
2022-10-02T17:13:43.011Z,10.89
2022-10-02T17:16:52.214Z,10.78
2022-10-02T17:19:54.993Z,10.72
2022-10-02T17:23:03.284Z,10.67
2022-10-02T17:26:06.265Z,10.72
2022-10-02T17:29:18.882Z,10.76
2022-10-02T17:32:38.089Z,10.72
2022-10-02T17:35:54.718Z,10.64
2022-10-02T17:38:56.461Z,10.58
2022-10-02T17:42:20.124Z,10.41
2022-10-02T17:45:38.372Z,10.29
2022-10-02T17:48:58.817Z,10.13
2022-10-02T17:52:42.325Z,9.81
2022-10-02T17:56:14.346Z,9.57
2022-10-02T17:59:34.724Z,9.55
2022-10-02T18:02:50.947Z,9.50
2022-10-02T18:05:55.556Z,9.48
2022-10-02T18:09:15.889Z,9.50
2022-10-02T18:12:35.570Z,9.49
2022-10-02T18:15:58.260Z,9.39
2022-10-02T18:19:14.933Z,9.28
2022-10-02T18:22:16.477Z,9.31
2022-10-02T18:25:23.906Z,9.39
2022-10-02T18:28:25.499Z,9.44
2022-10-02T18:31:54.703Z,9.46
2022-10-02T18:34:57.786Z,9.44
2022-10-02T18:38:05.379Z,9.48
2022-10-02T18:41:19.262Z,9.47
2022-10-02T18:44:29.829Z,9.40
2022-10-02T18:47:35.481Z,9.31
2022-10-02T18:50:46.397Z,9.26
2022-10-02T18:54:06.636Z,9.37
2022-10-02T18:57:08.147Z,9.41
2022-10-02T19:00:15.523Z,9.55
2022-10-02T19:03:35.789Z,9.61
2022-10-02T19:06:55.042Z,9.55
2022-10-02T19:10:29.671Z,9.45
2022-10-02T19:13:31.251Z,9.37
2022-10-02T19:16:32.841Z,9.34
2022-10-02T19:19:36.661Z,9.26
2022-10-02T19:22:38.517Z,9.25
2022-10-02T19:25:43.875Z,9.22
2022-10-02T19:28:49.608Z,9.12
2022-10-02T19:31:51.273Z,9.01
2022-10-02T19:35:06.615Z,8.93
2022-10-02T19:38:14.247Z,8.96
2022-10-02T19:41:15.796Z,8.90
2022-10-02T19:44:19.448Z,8.87
2022-10-02T19:47:30.030Z,8.92
2022-10-02T19:50:40.963Z,9.04
2022-10-02T19:53:48.391Z,9.05
2022-10-02T19:56:51.228Z,8.94
2022-10-02T19:59:53.472Z,8.90
2022-10-02T20:02:56.189Z,9.05
2022-10-02T20:06:00.200Z,9.19
2022-10-02T20:09:04.161Z,9.31
2022-10-02T20:12:05.870Z,9.35
2022-10-02T20:15:14.878Z,9.33
2022-10-02T20:18:16.454Z,9.33
2022-10-02T20:21:19.509Z,9.38
2022-10-02T20:24:31.755Z,9.41
2022-10-02T20:27:36.478Z,9.38
2022-10-02T20:30:41.419Z,9.31
2022-10-02T20:33:55.701Z,9.27
2022-10-02T20:36:58.803Z,9.27
2022-10-02T20:40:06.962Z,9.31
2022-10-02T20:43:15.171Z,9.35
2022-10-02T20:46:22.659Z,9.29
2022-10-02T20:49:40.328Z,9.32
2022-10-02T20:52:41.907Z,9.39
2022-10-02T20:55:49.676Z,9.42
2022-10-02T20:58:51.444Z,9.41
2022-10-02T21:01:53.023Z,9.35
2022-10-02T21:04:54.644Z,9.45
2022-10-02T21:08:06.788Z,9.55
2022-10-02T21:11:14.280Z,9.40
2022-10-02T21:14:34.553Z,9.42
2022-10-02T21:17:55.433Z,9.51
2022-10-02T21:21:03.256Z,9.56
2022-10-02T21:24:14.246Z,9.62
2022-10-02T21:27:20.506Z,9.60
2022-10-02T21:30:22.167Z,9.44
2022-10-02T21:33:42.287Z,9.37
2022-10-02T21:36:48.839Z,9.32
2022-10-02T21:39:53.496Z,9.36
2022-10-02T21:43:13.933Z,9.32
2022-10-02T21:46:41.707Z,9.27
2022-10-02T21:49:58.442Z,9.36
2022-10-02T21:53:07.533Z,9.37
2022-10-02T21:56:09.070Z,9.33
2022-10-02T21:59:13.446Z,9.37
2022-10-02T22:02:33.620Z,9.41
2022-10-02T22:05:47.142Z,9.48
2022-10-02T22:08:55.068Z,9.45
2022-10-02T22:12:08.746Z,9.46
2022-10-02T22:15:11.722Z,9.54
2022-10-02T22:18:22.381Z,9.41
2022-10-02T22:21:29.773Z,9.49
2022-10-02T22:24:50.063Z,9.50
2022-10-02T22:28:00.570Z,9.44
2022-10-02T22:31:05.035Z,9.47
2022-10-02T22:34:28.933Z,9.46
2022-10-02T22:37:37.578Z,9.46
2022-10-02T22:40:58.117Z,9.53
2022-10-02T22:44:22.987Z,9.64
2022-10-02T22:47:27.376Z,9.65
2022-10-02T22:50:31.757Z,9.58
2022-10-02T22:53:38.721Z,9.50
2022-10-02T22:56:51.257Z,9.56
2022-10-02T22:59:55.346Z,9.56
2022-10-02T23:03:06.200Z,9.47
2022-10-02T23:06:10.598Z,9.27
2022-10-02T23:09:22.642Z,9.24
2022-10-02T23:12:36.823Z,9.29
2022-10-02T23:15:39.859Z,9.32
2022-10-02T23:18:41.510Z,9.27
2022-10-02T23:21:48.145Z,9.28
2022-10-02T23:24:52.951Z,9.24
2022-10-02T23:28:02.375Z,9.40
2022-10-02T23:31:08.578Z,9.47
2022-10-02T23:34:33.525Z,9.36
2022-10-02T23:37:50.138Z,9.28
2022-10-02T23:41:19.251Z,9.15
2022-10-02T23:44:27.149Z,9.08
2022-10-02T23:47:47.409Z,9.12
2022-10-02T23:51:04.643Z,9.15
2022-10-02T23:54:11.938Z,9.14
2022-10-02T23:57:29.824Z,9.10
